Bookmark and Share
Track history (hours):
 

Campeche Bay

Last reported at 2014-Apr-20 00:10 UTC. Time now 2014-Apr-20 13:28 UTC.
Position N 29°28' W 094°51'.

Length 110 m; draft 4.1 m.

Type: Cargo ship. MMSI: 209641000.

NotesDate/timePositionNaut miles runAvg speedWind from/ knotsBaromVisibWave heightAir tempDewpointWater temp
2014-Apr-20 00:10N 29°28' W 094°51'6 9.2
2014-Apr-19 23:33N 29°33' W 094°54'9 9.1
2014-Apr-19 22:33N 29°41' W 094°59'1 0.7
2014-Apr-19 21:33N 29°41' W 094°60'0 0.0
2014-Apr-19 20:33N 29°41' W 094°60'0 0.0
2014-Apr-19 19:33N 29°41' W 094°60'0 0.0
2014-Apr-19 18:33N 29°41' W 094°60'0 0.0
2014-Apr-19 17:33N 29°41' W 094°60'0 0.0
2014-Apr-19 16:27N 29°41' W 094°60'0 0.0
2014-Apr-19 15:33N 29°41' W 094°60'0 0.0
2014-Apr-19 14:33N 29°41' W 094°60'0 0.0
2014-Apr-19 13:33N 29°41' W 094°60'0 0.0
2014-Apr-19 12:33N 29°41' W 094°60'0 0.0
2014-Apr-19 11:33N 29°41' W 094°60'0 0.0
2014-Apr-19 10:33N 29°41' W 094°60'6 6.3
2014-Apr-19 09:33N 29°35' W 094°56'8 8.2
2014-Apr-19 08:34N 29°29' W 094°51'  
2014-Apr-12 14:25N 29°41' W 094°60'0 0.0
2014-Apr-12 13:13N 29°41' W 094°60'0 0.0
2014-Apr-12 12:33N 29°41' W 094°60'0 0.0
2014-Apr-12 11:33N 29°41' W 094°60'0 0.0
2014-Apr-12 10:33N 29°41' W 094°60'2 2.1
2014-Apr-12 09:33N 29°39' W 094°58'9 9.2
2014-Apr-12 08:33N 29°31' W 094°53'  

Dump ship's entire track history

sailing weather and tide predictions

Campeche Bay — P3ZF9 — position and weather